Latest Weather Observations for Edithburgh

IDS60801

Issued at 7:02 am CST Thursday 1 October 2020 (issued every 10 minutes, with the page automatically refreshed every 10 minutes)

About weather observations | Map of weather stations | Latest weather observations for SA | Other Formats
Station Details ID: 022046 Name: EDITHBURGH Lat: -35.11 Lon: 137.74 Height: 6.0 m
Data from the previous 72 hours. | See also: Recent months at Edithburgh
Date/Time
CST
Temp
°C
App
Temp
°C
Dew
Point
°C
Rel
Hum
%
Delta-T
°C
Wind Press
QNH
hPa
Press
MSL
hPa
Rain since
9am
mm
Dir  Spd
km/h
Gust
km/h
Spd
kts
Gust
kts
01/07:00am 6.7 4.6 6.7 100 0.0 NNW 7 9 4 5 1017.9 1017.9 4.2
01/06:30am 3.9 0.5 3.9 100 0.0 NNW 11 13 6 7 1017.5 1017.5 4.2
01/06:00am 3.1 -0.5 3.1 100 0.0 N 11 13 6 7 1017.0 1017.0 4.2
01/05:30am 4.0 1.0 4.0 100 0.0 NNW 9 9 5 5 1016.8 1016.8 4.2
01/05:00am 4.3 1.3 4.3 100 0.0 NW 9 11 5 6 1016.7 1016.7 4.2
01/04:30am 3.7 0.2 3.7 100 0.0 NW 11 13 6 7 1016.5 1016.5 4.2
01/04:00am 4.2 0.8 4.2 100 0.0 NW 11 13 6 7 1016.4 1016.4 4.2
01/03:30am 4.6 1.3 4.6 100 0.0 NW 11 13 6 7 1016.2 1016.2 4.2
01/03:00am 4.1 0.3 4.1 100 0.0 NW 13 13 7 7 1016.1 1016.1 4.2
01/02:30am 4.5 1.6 4.5 100 0.0 WNW 9 11 5 6 1015.9 1015.9 4.0
01/02:00am 4.8 1.9 4.8 100 0.0 WNW 9 13 5 7 1016.0 1016.0 4.0
01/01:30am 4.9 1.7 4.9 100 0.0 NW 11 13 6 7 1016.1 1016.1 4.0
01/01:00am 6.4 3.1 6.4 100 0.0 WNW 13 15 7 8 1016.4 1016.4 4.0
01/12:30am 5.5 3.2 5.5 100 0.0 WNW 7 9 4 5 1016.6 1016.6 4.0
01/12:00am 5.6 2.9 5.6 100 0.0 NW 9 13 5 7 1016.6 1016.6 4.0
 
Date/Time
CST
Temp
°C
App
Temp
°C
Dew
Point
°C
Rel
Hum
%
Delta-T
°C
Wind Press
QNH
hPa
Press
MSL
hPa
Rain since
9am
mm
Dir  Spd
km/h
Gust
km/h
Spd
kts
Gust
kts
30/11:30pm 6.0 3.4 6.0 100 0.0 NW 9 13 5 7 1016.5 1016.5 4.0
30/11:00pm 6.8 4.7 6.8 100 0.0 WNW 7 11 4 6 1016.6 1016.6 4.0
30/10:30pm 7.2 4.5 7.2 100 0.0 NW 11 13 6 7 1016.7 1016.7 4.0
30/10:00pm 9.5 7.7 9.5 100 0.0 W 9 13 5 7 1016.7 1016.7 4.0
30/09:30pm 9.7 8.3 9.7 100 0.0 WNW 7 9 4 5 1016.4 1016.4 4.0
30/09:00pm 11.2 9.5 11.2 100 0.0 WSW 11 17 6 9 1015.8 1015.8 4.0
30/08:30pm 11.9 9.3 11.9 100 0.0 WSW 17 24 9 13 1015.7 1015.7 4.0
30/08:00pm 11.5 9.1 11.5 100 0.0 WSW 15 20 8 11 1015.5 1015.5 4.0
30/07:30pm 10.8 9.0 10.8 100 0.0 W 11 17 6 9 1014.9 1014.9 4.0
30/07:00pm 11.4 9.4 11.4 100 0.0 W 13 17 7 9 1014.4 1014.4 4.0
30/06:30pm 13.0 11.1 13.0 100 0.0 WSW 15 22 8 12 1013.8 1013.8 4.0
30/06:00pm 13.6 11.5 13.6 100 0.0 WSW 17 24 9 13 1013.5 1013.5 4.0
30/05:30pm 14.4 13.3 14.4 100 0.0 W 13 17 7 9 1012.8 1012.8 4.0
30/05:00pm 15.0 13.0 15.0 100 0.0 W 19 26 10 14 1012.4 1012.4 4.0
30/04:30pm 15.3 13.2 15.3 100 0.0 WSW 20 30 11 16 1012.1 1012.1 4.0
30/04:00pm 17.1 15.9 17.1 100 0.0 W 19 24 10 13 1011.3 1011.3 4.0
30/03:30pm 15.6 13.6 15.6 100 0.0 W 20 32 11 17 1011.5 1011.5 4.0
30/03:00pm 14.9 11.2 14.9 100 0.0 W 28 37 15 20 1011.8 1011.8 4.0
30/02:30pm 13.6 9.8 13.6 100 0.0 WSW 26 43 14 23 1012.0 1012.0 1.8
30/02:12pm 16.4 12.9 16.4 100 0.0 WNW 30 50 16 27 1011.7 1011.7 0.0
30/02:00pm 16.4 13.6 16.4 100 0.0 WNW 26 35 14 19 1011.7 1011.7 0.0
30/01:30pm 15.2 11.6 15.2 100 0.0 WNW 28 37 15 20 1011.9 1011.9 0.0
30/01:00pm 15.5 11.6 15.5 100 0.0 NW 30 39 16 21 1012.0 1012.0 0.0
30/12:30pm 16.1 12.8 16.1 100 0.0 NW 28 39 15 21 1011.9 1011.9 0.0
30/12:00pm 14.9 10.8 14.9 100 0.0 NW 30 39 16 21 1012.1 1012.1 0.0
30/11:30am 14.8 11.0 14.8 100 0.0 NW 28 37 15 20 1012.1 1012.1 0.0
30/11:00am 14.8 11.0 14.8 100 0.0 NW 28 35 15 19 1012.5 1012.5 0.0
30/10:30am 14.6 9.8 14.6 100 0.0 NW 33 43 18 23 1012.5 1012.5 0.0
30/10:00am 15.4 11.9 15.4 100 0.0 WNW 28 41 15 22 1012.7 1012.7 0.0
30/09:30am 14.7 10.5 14.7 100 0.0 NW 30 39 16 21 1012.4 1012.4 0.0
30/09:00am 14.4 12.0 14.4 100 0.0 NW 20 28 11 15 1012.3 1012.3 16.0
30/08:30am 14.3 10.7 14.3 100 0.0 NW 26 35 14 19 1012.5 1012.5 16.0
30/08:00am 14.6 11.9 14.6 100 0.0 WNW 22 32 12 17 1012.3 1012.3 16.0
30/07:30am 13.6 11.9 13.6 100 0.0 NW 15 19 8 10 1012.2 1012.2 16.0
30/07:00am 12.5 10.8 12.5 100 0.0 NW 13 15 7 8 1012.0 1012.0 16.0
30/06:30am 11.9 10.0 11.9 100 0.0 NW 13 15 7 8 1012.1 1012.1 16.0
30/06:00am 11.5 10.3 11.5 100 0.0 NW 9 13 5 7 1011.7 1011.7 16.0
30/05:30am 11.4 10.7 11.4 100 0.0 NW 6 6 3 3 1011.3 1011.3 16.0
30/05:00am 11.5 10.3 11.5 100 0.0 NW 9 13 5 7 1011.0 1011.0 16.0
30/04:30am 11.6 10.0 11.6 100 0.0 WNW 11 17 6 9 1011.1 1011.1 16.0
30/04:00am 11.5 9.9 11.5 100 0.0 WNW 11 19 6 10 1011.1 1011.1 16.0
30/03:30am 11.8 10.7 11.8 100 0.0 WNW 9 15 5 8 1011.2 1011.2 16.0
30/03:00am 11.8 9.5 11.8 100 0.0 WNW 15 19 8 10 1011.3 1011.3 16.0
30/02:30am 11.8 9.1 11.8 100 0.0 WNW 17 22 9 12 1011.3 1011.3 16.0
30/02:00am 11.6 9.6 11.6 100 0.0 WNW 13 20 7 11 1011.5 1011.5 16.0
30/01:30am 11.4 9.8 11.4 100 0.0 WNW 11 17 6 9 1011.9 1011.9 16.0
30/01:00am 10.9 8.7 10.9 100 0.0 WNW 13 15 7 8 1012.1 1012.1 16.0
30/12:30am 11.6 10.0 11.6 100 0.0 WNW 11 13 6 7 1012.2 1012.2 16.0
30/12:00am 11.1 9.8 11.1 100 0.0 NW 9 11 5 6 1012.3 1012.3 16.0
 
Date/Time
CST
Temp
°C
App
Temp
°C
Dew
Point
°C
Rel
Hum
%
Delta-T
°C
Wind Press
QNH
hPa
Press
MSL
hPa
Rain since
9am
mm
Dir  Spd
km/h
Gust
km/h
Spd
kts
Gust
kts
29/11:30pm 12.3 11.7 12.3 100 0.0 WNW 7 9 4 5 1012.4 1012.4 16.0
29/11:00pm 12.9 12.1 12.9 100 0.0 WNW 9 13 5 7 1012.8 1012.8 16.0
29/10:30pm 13.3 11.1 13.3 100 0.0 NW 17 28 9 15 1013.1 1013.1 15.6
29/10:00pm 13.6 12.3 13.6 100 0.0 N 13 17 7 9 1012.9 1012.9 14.8
29/09:30pm 13.6 12.7 13.6 100 0.0 N 11 15 6 8 1013.1 1013.1 14.8
29/09:00pm 13.8 12.9 13.8 100 0.0 N 11 17 6 9 1013.1 1013.1 14.6
29/08:30pm 13.9 12.3 13.9 100 0.0 N 15 22 8 12 1013.2 1013.2 14.4
29/08:00pm 13.8 12.5 13.8 100 0.0 NNE 13 20 7 11 1013.1 1013.1 14.4
29/07:30pm 13.6 12.3 13.6 100 0.0 NE 13 22 7 12 1012.9 1012.9 14.4
29/07:00pm 13.6 11.1 13.6 100 0.0 NE 19 26 10 14 1012.6 1012.6 14.2
29/06:30pm 13.7 13.2 13.7 100 0.0 NNE 9 13 5 7 1013.3 1013.3 13.4
29/06:00pm 13.7 13.2 13.7 100 0.0 N 9 13 5 7 1013.5 1013.5 12.6
29/05:30pm 14.4 14.1 14.4 100 0.0 N 9 13 5 7 1013.7 1013.7 9.6
29/05:00pm 14.5 14.2 14.5 100 0.0 NNE 9 15 5 8 1013.5 1013.5 7.6
29/04:30pm 14.9 15.2 14.9 100 0.0 N 7 13 4 7 1013.4 1013.4 6.2
29/04:00pm 14.7 13.4 14.7 100 0.0 N 15 20 8 11 1013.3 1013.3 5.6
29/03:30pm 15.0 14.9 15.0 100 0.0 N 9 13 5 7 1013.5 1013.5 5.0
29/03:00pm 15.1 14.3 15.1 100 0.0 NNW 13 17 7 9 1013.6 1013.6 4.2
29/02:30pm 15.1 15.4 15.1 100 0.0 WNW 7 11 4 6 1013.5 1013.5 3.8
29/02:00pm 14.7 13.4 14.7 100 0.0 WNW 15 22 8 12 1013.8 1013.8 3.4
29/01:30pm 14.9 12.7 14.9 100 0.0 WNW 20 28 11 15 1014.1 1014.1 2.0
29/01:00pm 14.6 11.5 14.6 100 0.0 WNW 24 35 13 19 1014.1 1014.1 1.4
29/12:30pm 15.3 12.7 14.8 97 0.3 NW 22 30 12 16 1015.2 1015.2 0.2
29/12:00pm 15.4 13.0 14.4 94 0.6 NNW 20 28 11 15 1015.1 1015.1 0.2
29/11:30am 15.2 11.6 13.2 88 1.1 NNW 24 37 13 20 1015.2 1015.2 0.0
29/11:00am 15.8 12.8 12.5 81 1.8 NNW 20 28 11 15 1015.2 1015.2 0.0
29/10:30am 16.9 14.4 12.2 74 2.6 N 17 30 9 16 1015.2 1015.2 0.0
29/10:00am 15.6 13.3 14.1 91 0.8 NNE 19 28 10 15 1015.2 1015.2 0.0
29/09:30am 15.4 12.6 13.2 87 1.2 NNE 20 33 11 18 1015.0 1015.0 0.0
29/09:00am 15.3 12.6 13.0 86 1.3 NNE 19 28 10 15 1014.8 1014.8 0.0
29/08:30am 15.3 12.7 13.2 87 1.2 NNE 19 28 10 15 1014.9 1014.9 0.0
29/08:00am 15.1 12.3 13.1 88 1.1 NNE 20 28 11 15 1014.8 1014.8 0.0
29/07:30am 14.8 11.9 13.0 89 1.0 NNE 20 33 11 18 1014.7 1014.7 0.0
29/07:00am 14.7 12.4 12.9 89 1.0 NNE 17 28 9 15 1014.9 1014.9 0.0
29/06:30am 14.5 11.6 13.0 91 0.8 NNE 20 32 11 17 1014.5 1014.5 0.0
29/06:00am 14.5 11.6 12.9 90 0.9 NNE 20 32 11 17 1014.4 1014.4 0.0
29/05:30am 14.5 11.5 12.7 89 1.0 NNE 20 30 11 16 1014.3 1014.3 0.0
29/05:00am 14.6 11.6 12.6 88 1.1 NNE 20 30 11 16 1014.3 1014.3 0.0
29/04:30am 14.4 11.5 12.8 90 0.9 NE 20 32 11 17 1014.4 1014.4 0.0
29/04:00am 14.3 11.1 13.0 92 0.7 NE 22 30 12 16 1014.7 1014.7 0.0
29/03:30am 14.3 11.7 13.2 93 0.6 NE 19 28 10 15 1015.2 1015.2 0.0
29/03:00am 14.4 11.8 13.3 93 0.6 NE 19 24 10 13 1015.6 1015.6 0.0
29/02:30am 14.4 11.8 13.1 92 0.7 NE 19 26 10 14 1015.9 1015.9 0.0
29/02:00am 14.6 12.4 13.3 92 0.7 NNE 17 24 9 13 1016.5 1016.5 0.0
29/01:30am 14.7 12.5 13.2 91 0.8 NNE 17 24 9 13 1017.0 1017.0 0.0
29/01:00am 15.1 12.5 13.3 89 1.0 NE 19 28 10 15 1016.9 1016.9 0.0
29/12:30am 15.4 12.2 13.2 87 1.2 NE 22 30 12 16 1016.8 1016.8 0.0
29/12:00am 15.3 12.1 13.2 87 1.2 NE 22 30 12 16 1017.3 1017.3 0.0
 
Date/Time
CST
Temp
°C
App
Temp
°C
Dew
Point
°C
Rel
Hum
%
Delta-T
°C
Wind Press
QNH
hPa
Press
MSL
hPa
Rain since
9am
mm
Dir  Spd
km/h
Gust
km/h
Spd
kts
Gust
kts
28/11:30pm 15.4 11.4 12.9 85 1.4 NE 26 35 14 19 1017.4 1017.4 0.0
28/11:00pm 15.3 12.1 13.0 86 1.3 NE 22 30 12 16 1017.5 1017.5 0.0
28/10:30pm 15.4 12.1 12.9 85 1.4 ENE 22 26 12 14 1017.7 1017.7 0.0
28/10:00pm 15.6 12.4 13.1 85 1.4 ENE 22 28 12 15 1018.0 1018.0 0.0
28/09:30pm 15.7 12.5 13.2 85 1.4 ENE 22 28 12 15 1018.6 1018.6 0.0
28/09:00pm 15.9 13.2 13.4 85 1.4 ENE 20 26 11 14 1018.9 1018.9 0.0
28/08:30pm 16.0 13.8 13.3 84 1.5 ENE 17 20 9 11 1019.3 1019.3 0.0
28/08:00pm 16.0 13.8 13.3 84 1.5 ENE 17 20 9 11 1019.3 1019.3 0.0
28/07:30pm 16.4 13.8 13.1 81 1.8 ENE 19 24 10 13 1018.8 1018.8 0.0
28/07:00pm 16.4 13.6 13.3 82 1.7 ENE 20 28 11 15 1018.4 1018.4 0.0
28/06:30pm 16.6 14.1 13.5 82 1.7 ENE 19 26 10 14 1018.3 1018.3 0.0
28/06:00pm 17.0 13.9 13.5 80 2.0 ENE 22 32 12 17 1018.3 1018.3 0.0
28/05:30pm 17.3 14.3 13.6 79 2.1 ENE 22 30 12 16 1018.4 1018.4 0.0
28/05:00pm 17.2 14.1 13.5 79 2.1 ENE 22 26 12 14 1018.3 1018.3 0.0
28/04:30pm 18.0 15.5 14.1 78 2.2 ENE 20 28 11 15 1018.5 1018.5 0.0
28/04:00pm 18.0 16.1 14.3 79 2.1 ENE 17 24 9 13 1018.7 1018.7 0.0
28/03:30pm 18.5 16.2 14.0 75 2.6 ENE 19 24 10 13 1019.0 1019.0 0.0
28/03:00pm 18.3 16.0 14.2 77 2.3 ENE 19 26 10 14 1019.3 1019.3 0.0
28/02:30pm 17.8 14.9 14.1 79 2.1 ENE 22 28 12 15 1019.9 1019.8 0.0
28/02:00pm 17.5 15.0 14.2 81 1.9 ENE 20 26 11 14 1020.3 1020.2 0.0
28/01:30pm 17.7 15.3 14.4 81 1.9 ENE 20 24 11 13 1020.7 1020.6 0.0
28/01:00pm 18.1 16.1 15.0 82 1.8 ENE 19 24 10 13 1021.3 1021.2 0.0
28/12:30pm 17.2 15.0 14.5 84 1.5 NE 19 24 10 13 1021.9 1021.8 0.0
28/12:00pm 17.0 14.8 14.3 84 1.5 NE 19 24 10 13 1022.3 1022.2 0.0
28/11:30am 16.5 13.6 13.0 80 1.9 NE 20 30 11 16 1022.8 1022.7 0.0
28/11:00am 16.4 13.5 12.9 80 1.9 NE 20 30 11 16 1023.4 1023.4 0.0
28/10:30am 16.8 14.3 13.5 81 1.8 NE 19 28 10 15 1023.9 1023.9 0.0
28/10:00am 15.1 12.2 12.2 83 1.6 NNE 19 28 10 15 1024.1 1024.1 0.0
28/09:30am 14.7 11.8 12.2 85 1.4 NNE 19 28 10 15 1024.4 1024.4 0.0
28/09:00am 14.1 11.1 11.8 86 1.2 NNE 19 28 10 15 1024.6 1024.6 0.0
28/08:30am 14.0 10.8 11.9 87 1.1 NNE 20 32 11 17 1024.5 1024.5 0.0
28/08:00am 14.6 11.6 12.1 85 1.4 NE 19 30 10 16 1024.6 1024.6 0.0
28/07:30am 14.6 11.8 12.5 87 1.1 NE 19 26 10 14 1024.8 1024.8 0.0

Other formats

Comma delimited format used in spreadsheet applications
http://www.bom.gov.au/fwo/IDS60801/IDS60801.94809.axf

JavaScript Object Notation format (JSON) in row-major order
http://www.bom.gov.au/fwo/IDS60801/IDS60801.94809.json

Data quality

Most of these data are generated automatically and are frequently updated. Quality checks on data are not normally performed. It is possible for incorrect values to appear. Refer to information at About Latest Weather Observations and please check the disclaimer before using these data.